Time;durP1;ratioP1;P1;durP2;ratioP2;P2;SDS_P1;SDS_P2;PMS_P1;PMS_P2;Temp;Humidity;BMP_temperature;BMP_pressure;BME280_temperature;BME280_humidity;BME280_pressure;Samples;Min_cycle;Max_cycle;Signal;HPM_P1;HPM_P2
2021/03/22 00:00:59;;;;;;;41.95;21.17;;;103.30;1433.60;;;;;;5074210;28;20450;-64
2021/03/22 00:03:25;;;;;;;44.78;21.15;;;103.30;1433.60;;;;;;5072093;28;20474;-73
2021/03/22 00:06:03;;;;;;;;;;;;;;;;;;;;;
2021/03/22 00:08:29;;;;;;;46.80;21.13;;;103.20;1433.60;;;;;;5068546;28;20033;-64
2021/03/22 00:10:56;;;;;;;37.88;19.52;;;103.20;1433.60;;;;;;5066166;28;20398;-66
2021/03/22 00:13:23;;;;;;;40.33;20.80;;;103.20;1433.60;;;;;;5067776;28;20382;-63
2021/03/22 00:15:50;;;;;;;43.10;20.33;;;103.20;1433.60;;;;;;5065042;28;20032;-65
2021/03/22 00:18:23;;;;;;;36.47;19.85;;;103.10;1459.20;;;;;;5070264;28;20035;-64
2021/03/22 00:20:50;;;;;;;35.75;19.15;;;103.10;1459.20;;;;;;5071170;28;20385;-70
2021/03/22 00:23:16;;;;;;;38.53;20.05;;;103.10;1459.20;;;;;;5071639;28;20041;-68
2021/03/22 00:25:42;;;;;;;45.15;22.20;;;103.00;1459.20;;;;;;5068381;28;20021;-65
2021/03/22 00:28:13;;;;;;;45.28;22.10;;;103.00;1459.20;;;;;;5067419;28;20024;-64
2021/03/22 00:30:42;;;;;;;46.75;22.88;;;102.90;1459.20;;;;;;5075461;28;20040;-64
2021/03/22 00:33:09;;;;;;;47.70;23.23;;;102.90;1484.80;;;;;;5055832;28;20055;-75
2021/03/22 00:35:35;;;;;;;45.05;22.05;;;102.90;1484.80;;;;;;5054101;28;20033;-65
2021/03/22 00:38:02;;;;;;;45.70;22.38;;;102.90;1484.80;;;;;;5075738;28;20055;-64
2021/03/22 00:40:32;;;;;;;45.05;22.15;;;102.90;1484.80;;;;;;5068614;28;20010;-64
2021/03/22 00:42:57;;;;;;;45.72;22.50;;;102.80;1484.80;;;;;;5071490;28;20013;-67
2021/03/22 00:45:24;;;;;;;41.25;21.23;;;102.80;1484.80;;;;;;5054591;28;20025;-66
2021/03/22 00:47:51;;;;;;;43.13;23.15;;;102.80;1484.80;;;;;;5064501;28;20020;-70
2021/03/22 00:50:30;;;;;;;49.03;24.67;;;102.60;1484.80;;;;;;5071904;28;20038;-64
2021/03/22 00:53:15;;;;;;;47.70;24.35;;;102.70;1510.40;;;;;;5060627;28;20021;-81
2021/03/22 00:55:41;;;;;;;45.33;23.02;;;102.70;1510.40;;;;;;5070111;28;20029;-63
2021/03/22 00:58:07;;;;;;;43.78;22.70;;;102.60;1510.40;;;;;;5071432;28;20036;-78
2021/03/22 01:00:40;;;;;;;50.53;25.52;;;102.60;1510.40;;;;;;5075263;28;20020;-64
2021/03/22 01:03:10;;;;;;;50.42;26.48;;;102.60;1510.40;;;;;;5068632;28;20071;-73
2021/03/22 01:05:36;;;;;;;52.65;25.23;;;102.60;1510.40;;;;;;5068341;28;20378;-77
2021/03/22 01:08:02;;;;;;;48.83;24.88;;;102.60;1536.00;;;;;;5068472;28;20029;-77
2021/03/22 01:10:36;;;;;;;45.97;24.85;;;102.50;1510.40;;;;;;5069755;28;20111;-63
2021/03/22 01:13:04;;;;;;;52.85;25.33;;;102.50;1510.40;;;;;;5070368;28;20040;-78
2021/03/22 01:15:30;;;;;;;48.17;25.45;;;102.50;1510.40;;;;;;5069960;28;20470;-70
2021/03/22 01:17:57;;;;;;;49.00;25.95;;;102.40;1536.00;;;;;;5071158;28;20028;-66
2021/03/22 01:20:31;;;;;;;48.85;26.13;;;102.40;1536.00;;;;;;5078008;28;20073;-63
2021/03/22 01:22:57;;;;;;;54.83;27.23;;;102.40;1536.00;;;;;;5054580;28;20021;-64
2021/03/22 01:25:22;;;;;;;49.00;25.63;;;102.40;1536.00;;;;;;5070162;28;20031;-75
2021/03/22 01:27:49;;;;;;;52.92;26.20;;;102.40;1536.00;;;;;;5066784;28;20025;-64
2021/03/22 01:30:15;;;;;;;52.42;28.13;;;102.40;1536.00;;;;;;5069323;28;20020;-63
2021/03/22 01:32:41;;;;;;;65.90;30.83;;;77.70;1561.60;;;;;;5069590;28;20120;-63
2021/03/22 01:35:08;;;;;;;74.70;32.95;;;77.70;1561.60;;;;;;5071646;28;20350;-76
2021/03/22 01:37:34;;;;;;;72.53;33.60;;;77.70;1561.60;;;;;;5071207;28;20168;-66
2021/03/22 01:40:00;;;;;;;63.83;32.03;;;77.70;1561.60;;;;;;5075926;28;20020;-62
2021/03/22 01:42:45;;;;;;;59.67;30.05;;;77.70;1561.60;;;;;;5076001;28;20082;-62
2021/03/22 01:45:11;;;;;;;65.22;31.55;;;77.70;1561.60;;;;;;5078007;28;20478;-68
2021/03/22 01:47:37;;;;;;;55.78;29.88;;;77.60;1561.60;;;;;;5083471;28;20024;-73
2021/03/22 01:50:25;;;;;;;62.88;31.75;;;77.60;1587.20;;;;;;5073963;28;20025;-63
2021/03/22 01:52:52;;;;;;;82.60;39.08;;;77.60;1587.20;;;;;;5062100;28;20025;-65
2021/03/22 01:55:20;;;;;;;99.25;42.05;;;77.50;1561.60;;;;;;5069483;28;20024;-65
2021/03/22 01:57:47;;;;;;;94.43;39.40;;;77.50;1587.20;;;;;;5076022;28;20028;-63
2021/03/22 02:00:20;;;;;;;92.13;37.88;;;77.50;1587.20;;;;;;5075886;28;20024;-63
2021/03/22 02:02:49;;;;;;;82.13;37.03;;;77.50;1587.20;;;;;;5064977;28;20032;-67
2021/03/22 02:05:22;;;;;;;64.45;32.70;;;77.50;1587.20;;;;;;5093455;28;20050;-62
2021/03/22 02:07:52;;;;;;;60.13;30.08;;;77.50;1587.20;;;;;;5075243;28;20036;-66
2021/03/22 02:10:19;;;;;;;57.30;29.85;;;77.50;1587.20;;;;;;5075482;28;20032;-62
2021/03/22 02:12:45;;;;;;;52.30;26.70;;;77.50;1587.20;;;;;;5074935;28;20036;-67
2021/03/22 02:15:11;;;;;;;52.22;27.05;;;77.50;1612.80;;;;;;5068013;28;20032;-62
2021/03/22 02:18:05;;;;;;;47.33;26.27;;;77.40;1612.80;;;;;;5074180;28;20024;-64
2021/03/22 02:21:08;;;;;;;47.40;25.67;;;77.50;1612.80;;;;;;5067916;28;20472;-64
2021/03/22 02:24:08;;;;;;;49.08;27.85;;;77.50;1638.40;;;;;;5070102;28;20031;-63
2021/03/22 02:26:58;;;;;;;47.00;27.20;;;77.50;1612.80;;;;;;5069952;28;20037;-62
2021/03/22 02:29:30;;;;;;;50.03;28.88;;;77.50;1612.80;;;;;;5068900;28;20017;-63
2021/03/22 02:32:20;;;;;;;54.88;30.83;;;77.50;1612.80;;;;;;5067423;28;20032;-73
2021/03/22 02:34:56;;;;;;;60.50;31.83;;;77.50;1612.80;;;;;;5054546;28;20128;-63
2021/03/22 02:37:26;;;;;;;59.08;32.72;;;77.60;1638.40;;;;;;5070876;28;20033;-64
2021/03/22 02:40:28;;;;;;;59.38;33.30;;;77.60;1638.40;;;;;;5070860;28;20024;-63
2021/03/22 02:42:55;;;;;;;56.45;31.65;;;77.60;1638.40;;;;;;5067010;28;20051;-64
2021/03/22 02:45:33;;;;;;;50.03;28.80;;;77.70;1638.40;;;;;;5075072;28;20468;-68
2021/03/22 02:47:59;;;;;;;48.33;26.05;;;77.70;1638.40;;;;;;5073848;28;20468;-62
2021/03/22 02:50:29;;;;;;;41.72;23.95;;;77.70;1638.40;;;;;;5075098;28;20032;-62
2021/03/22 02:53:12;;;;;;;42.33;22.52;;;77.70;1638.40;;;;;;5074439;28;20032;-63
2021/03/22 02:56:19;;;;;;;40.10;21.90;;;77.70;1664.00;;;;;;5069073;28;20101;-63
2021/03/22 02:59:13;;;;;;;37.00;20.65;;;102.40;1664.00;;;;;;5074242;28;20021;-62
2021/03/22 03:01:48;;;;;;;40.08;19.45;;;102.40;1664.00;;;;;;5073766;28;20048;-62
2021/03/22 03:04:16;;;;;;;37.10;20.48;;;102.40;1664.00;;;;;;5066691;28;20020;-64
2021/03/22 03:06:48;;;;;;;33.42;19.83;;;102.40;1664.00;;;;;;5074434;28;20025;-72
2021/03/22 03:09:15;;;;;;;41.05;22.35;;;102.40;1664.00;;;;;;5074446;28;20029;-63
2021/03/22 03:11:41;;;;;;;39.95;21.08;;;102.40;1664.00;;;;;;5074548;28;20453;-63
2021/03/22 03:14:07;;;;;;;35.13;21.05;;;102.50;1664.00;;;;;;5056105;28;20068;-63
2021/03/22 03:16:33;;;;;;;32.28;19.33;;;102.50;1664.00;;;;;;5074452;28;20028;-64
2021/03/22 03:18:59;;;;;;;31.25;19.27;;;102.50;1689.60;;;;;;5074734;28;20028;-64
2021/03/22 03:21:25;;;;;;;40.63;21.92;;;102.50;1689.60;;;;;;5074283;28;20028;-64
2021/03/22 03:23:51;;;;;;;55.10;27.50;;;102.50;1689.60;;;;;;5056217;28;20389;-63
2021/03/22 03:26:17;;;;;;;57.78;30.80;;;102.50;1689.60;;;;;;5074607;28;20042;-63
2021/03/22 03:28:43;;;;;;;57.85;29.35;;;102.50;1689.60;;;;;;5074213;28;20483;-64
2021/03/22 03:31:09;;;;;;;53.17;27.92;;;102.60;1689.60;;;;;;5074121;28;20081;-64
2021/03/22 03:33:34;;;;;;;49.22;23.48;;;102.60;1689.60;;;;;;5074121;28;20047;-64
2021/03/22 03:36:00;;;;;;;41.22;20.65;;;102.60;1689.60;;;;;;5074175;28;20016;-63
2021/03/22 03:38:26;;;;;;;34.10;18.52;;;102.60;1689.60;;;;;;5073801;28;20497;-64
2021/03/22 03:40:52;;;;;;;29.02;16.88;;;102.60;1689.60;;;;;;5074112;28;20507;-63
2021/03/22 03:43:19;;;;;;;27.63;16.88;;;102.60;1715.20;;;;;;5073914;28;20454;-64
2021/03/22 03:45:47;;;;;;;31.73;16.52;;;102.60;1715.20;;;;;;5074033;28;20094;-63
2021/03/22 03:48:16;;;;;;;33.58;18.13;;;102.60;1689.60;;;;;;5074328;28;20343;-63
2021/03/22 03:50:42;;;;;;;27.75;16.58;;;102.60;1689.60;;;;;;5074220;28;20101;-81
2021/03/22 03:53:10;;;;;;;30.98;17.05;;;102.60;1715.20;;;;;;5074116;28;20026;-74
2021/03/22 03:55:36;;;;;;;29.48;17.25;;;102.60;1715.20;;;;;;5073800;28;20543;-73
2021/03/22 03:58:02;;;;;;;27.65;17.98;;;102.60;1715.20;;;;;;5073676;28;20021;-67
2021/03/22 04:00:30;;;;;;;26.58;15.75;;;102.70;1715.20;;;;;;5074003;28;20362;-63
2021/03/22 04:02:57;;;;;;;29.30;17.25;;;102.70;1715.20;;;;;;5073781;28;20017;-63
2021/03/22 04:05:24;;;;;;;35.05;18.15;;;102.70;1715.20;;;;;;5073418;28;20020;-62
2021/03/22 04:07:50;;;;;;;33.17;18.33;;;102.70;1715.20;;;;;;5073687;28;20038;-62
2021/03/22 04:10:16;;;;;;;29.73;18.42;;;102.70;1715.20;;;;;;5073465;28;20024;-63
2021/03/22 04:12:43;;;;;;;35.88;20.17;;;102.70;1715.20;;;;;;5073639;28;20474;-62
2021/03/22 04:15:12;;;;;;;40.25;21.10;;;102.70;1740.80;;;;;;5073746;28;20024;-62
2021/03/22 04:17:38;;;;;;;33.58;20.92;;;102.70;1740.80;;;;;;5073437;28;20020;-62
2021/03/22 04:20:05;;;;;;;28.90;17.55;;;102.60;1766.40;;;;;;5073392;28;20053;-62
2021/03/22 04:22:32;;;;;;;30.75;15.98;;;102.60;1766.40;;;;;;5073556;28;20059;-63
2021/03/22 04:24:58;;;;;;;25.55;15.77;;;102.60;1766.40;;;;;;5073441;28;20564;-62
2021/03/22 04:27:24;;;;;;;31.50;20.05;;;102.60;1766.40;;;;;;5073596;28;20029;-64
2021/03/22 04:29:49;;;;;;;27.50;18.92;;;102.60;1792.00;;;;;;5073481;28;20104;-62
2021/03/22 04:32:15;;;;;;;37.13;24.48;;;102.60;1766.40;;;;;;5072823;28;20549;-62
2021/03/22 04:34:41;;;;;;;32.05;21.30;;;102.60;1792.00;;;;;;5072918;28;20115;-62
2021/03/22 04:37:07;;;;;;;30.80;18.98;;;102.50;1792.00;;;;;;5073342;28;20040;-64
2021/03/22 04:39:33;;;;;;;25.00;17.15;;;102.50;1817.60;;;;;;5073433;28;20101;-62
2021/03/22 04:41:59;;;;;;;22.55;16.50;;;102.50;1792.00;;;;;;5073406;28;20441;-62
2021/03/22 04:44:25;;;;;;;21.52;14.77;;;102.50;1792.00;;;;;;5073315;28;20020;-62
2021/03/22 04:46:51;;;;;;;22.00;14.48;;;102.60;1792.00;;;;;;5073178;28;20035;-65
2021/03/22 04:49:17;;;;;;;30.73;15.48;;;102.60;1792.00;;;;;;5073579;28;20025;-63
2021/03/22 04:51:42;;;;;;;27.10;16.67;;;102.60;1792.00;;;;;;5073255;28;20040;-62
2021/03/22 04:54:08;;;;;;;29.75;19.15;;;102.70;1766.40;;;;;;5073355;28;20458;-62
2021/03/22 04:56:35;;;;;;;34.40;18.85;;;102.70;1792.00;;;;;;5073197;28;20021;-62
2021/03/22 04:59:01;;;;;;;30.83;20.83;;;102.70;1766.40;;;;;;5073305;28;20028;-62
2021/03/22 05:01:26;;;;;;;34.28;20.00;;;102.70;1792.00;;;;;;5073475;28;20420;-63
2021/03/22 05:03:52;;;;;;;30.50;19.02;;;102.80;1766.40;;;;;;5073401;28;20021;-62
2021/03/22 05:06:18;;;;;;;28.85;17.15;;;102.70;1792.00;;;;;;5073449;28;20025;-63
2021/03/22 05:08:44;;;;;;;28.58;16.88;;;102.70;1817.60;;;;;;5073226;28;20102;-62
2021/03/22 05:11:10;;;;;;;24.70;15.40;;;102.70;1817.60;;;;;;5073136;28;20032;-62
2021/03/22 05:13:35;;;;;;;27.45;16.38;;;102.70;1817.60;;;;;;5073042;28;20108;-62
2021/03/22 05:16:02;;;;;;;24.83;15.45;;;102.70;1817.60;;;;;;5074275;28;20120;-63
2021/03/22 05:18:30;;;;;;;27.33;16.90;;;102.70;1817.60;;;;;;5076856;28;20099;-62
2021/03/22 05:21:02;;;;;;;29.40;16.92;;;102.70;1817.60;;;;;;5076955;28;20369;-62
2021/03/22 05:23:30;;;;;;;29.40;16.75;;;102.70;1817.60;;;;;;5077440;28;20389;-62
2021/03/22 05:25:57;;;;;;;28.33;17.63;;;102.70;1817.60;;;;;;5076861;28;20029;-62
2021/03/22 05:28:25;;;;;;;30.63;16.75;;;102.80;1817.60;;;;;;5076751;28;20035;-63
2021/03/22 05:30:52;;;;;;;30.55;17.55;;;102.80;1817.60;;;;;;5076513;28;20470;-62
2021/03/22 05:33:20;;;;;;;31.23;18.05;;;102.80;1817.60;;;;;;5076831;28;20063;-62
2021/03/22 05:35:49;;;;;;;28.90;16.88;;;102.80;1817.60;;;;;;5076426;28;20021;-62
2021/03/22 05:38:15;;;;;;;32.33;21.17;;;102.80;1817.60;;;;;;5076229;28;20169;-62
2021/03/22 05:40:52;;;;;;;52.47;40.67;;;102.80;1843.20;;;;;;5076411;28;20417;-63
2021/03/22 05:43:42;;;;;;;85.03;64.40;;;102.80;1843.20;;;;;;5076268;28;20020;-62
2021/03/22 05:46:43;;;;;;;172.20;115.90;;;102.80;1843.20;;;;;;5076434;28;20060;-63
2021/03/22 05:50:02;;;;;;;108.97;80.93;;;102.80;1843.20;;;;;;5076191;28;20037;-63
2021/03/22 05:52:53;;;;;;;90.72;67.22;;;102.80;1843.20;;;;;;4975011;28;20101;-68
2021/03/22 05:55:34;;;;;;;83.30;56.05;;;102.90;1843.20;;;;;;4975528;28;20479;-62
2021/03/22 05:58:16;;;;;;;68.28;51.65;;;102.80;1868.80;;;;;;4968827;28;20077;-62
2021/03/22 06:01:30;;;;;;;52.15;38.72;;;102.80;1868.80;;;;;;4975667;28;20089;-72
2021/03/22 06:04:25;;;;;;;37.08;26.15;;;102.90;1868.80;;;;;;4975101;28;20037;-62
2021/03/22 06:06:51;;;;;;;28.38;20.10;;;102.90;1868.80;;;;;;4880100;29;20045;-62
2021/03/22 06:09:41;;;;;;;74.72;50.17;;;102.90;1868.80;;;;;;4879888;29;20033;-62
2021/03/22 06:12:07;;;;;;;176.65;92.70;;;102.90;1868.80;;;;;;4879966;29;20096;-68
2021/03/22 06:15:07;;;;;;;98.07;55.05;;;103.00;1868.80;;;;;;4880070;29;20472;-62
2021/03/22 06:17:43;;;;;;;227.18;126.05;;;103.00;1894.40;;;;;;4879836;29;20037;-62
2021/03/22 06:20:22;;;;;;;136.57;79.43;;;103.00;1868.80;;;;;;4879899;29;20033;-62
2021/03/22 06:22:48;;;;;;;101.82;65.40;;;103.00;1894.40;;;;;;4892255;29;20395;-62
2021/03/22 06:25:28;;;;;;;80.20;51.45;;;103.10;1894.40;;;;;;4917360;29;20034;-64
2021/03/22 06:27:56;;;;;;;53.05;36.42;;;103.10;1868.80;;;;;;4917239;29;20059;-62
2021/03/22 06:30:24;;;;;;;46.13;28.63;;;103.10;1868.80;;;;;;4917041;29;20036;-69
2021/03/22 06:32:54;;;;;;;44.13;28.40;;;103.10;1868.80;;;;;;4917105;29;20034;-62
2021/03/22 06:35:30;;;;;;;38.42;24.80;;;103.20;1894.40;;;;;;4917075;29;20466;-62
2021/03/22 06:37:55;;;;;;;35.95;20.55;;;103.20;1868.80;;;;;;4916834;29;20068;-73
2021/03/22 06:40:24;;;;;;;32.05;18.88;;;103.20;1894.40;;;;;;4917043;29;20054;-62
2021/03/22 06:43:08;;;;;;;46.08;24.30;;;103.30;1894.40;;;;;;4920548;28;20128;-61
2021/03/22 06:45:41;;;;;;;54.28;30.83;;;103.30;1894.40;;;;;;4993810;28;20019;-73
2021/03/22 06:48:37;;;;;;;54.53;33.67;;;128.00;1894.40;;;;;;4993942;28;20042;-64
2021/03/22 06:51:02;;;;;;;43.47;25.27;;;128.00;1920.00;;;;;;4993849;28;20046;-63
2021/03/22 06:53:34;;;;;;;43.90;26.50;;;128.10;1920.00;;;;;;4995419;28;20116;-62
2021/03/22 06:56:20;;;;;;;31.42;20.88;;;128.10;1894.40;;;;;;5074955;28;20020;-62
2021/03/22 06:58:48;;;;;;;33.55;20.35;;;128.20;1894.40;;;;;;5075308;28;20035;-62
2021/03/22 07:01:41;;;;;;;37.63;23.30;;;128.20;1894.40;;;;;;5074836;28;20032;-71
2021/03/22 07:04:27;;;;;;;32.53;20.00;;;128.30;1920.00;;;;;;5071187;28;20110;-62
2021/03/22 07:07:08;;;;;;;25.50;18.08;;;128.30;1920.00;;;;;;5074857;28;20029;-63
2021/03/22 07:09:37;;;;;;;30.75;19.60;;;128.40;1894.40;;;;;;5074717;28;20089;-62
2021/03/22 07:12:04;;;;;;;27.95;19.98;;;128.50;1894.40;;;;;;5074620;28;20036;-62
2021/03/22 07:14:31;;;;;;;100.75;68.20;;;128.50;1894.40;;;;;;5074176;28;20381;-73
2021/03/22 07:17:14;;;;;;;132.32;85.03;;;128.60;1894.40;;;;;;5074778;28;20107;-70
2021/03/22 07:19:40;;;;;;;146.68;92.43;;;128.60;1894.40;;;;;;5074528;28;20021;-62
2021/03/22 07:22:17;;;;;;;183.95;123.43;;;128.70;1894.40;;;;;;5075086;28;20031;-62
2021/03/22 07:25:20;;;;;;;177.15;134.18;;;128.80;1894.40;;;;;;5074204;28;20100;-62
2021/03/22 07:27:51;;;;;;;141.18;101.55;;;128.80;1894.40;;;;;;5072794;28;20025;-62
2021/03/22 07:30:52;;;;;;;87.43;61.38;;;128.80;1894.40;;;;;;5074723;28;20039;-68
2021/03/22 07:33:32;;;;;;;51.25;32.72;;;128.90;1894.40;;;;;;4973374;28;20047;-62
2021/03/22 07:36:03;;;;;;;41.65;26.35;;;153.60;1894.40;;;;;;4973380;28;20117;-62
2021/03/22 07:38:31;;;;;;;40.15;22.85;;;153.60;1868.80;;;;;;4972619;28;20050;-62
2021/03/22 07:41:04;;;;;;;32.88;21.42;;;153.60;1894.40;;;;;;4973407;28;20118;-62
2021/03/22 07:43:33;;;;;;;32.38;19.75;;;153.70;1868.80;;;;;;4973326;28;20035;-62
2021/03/22 07:46:07;;;;;;;35.35;21.13;;;153.80;1868.80;;;;;;4973029;28;20030;-63
2021/03/22 07:48:54;;;;;;;33.92;21.17;;;153.80;1868.80;;;;;;4972937;28;20166;-62
2021/03/22 07:52:05;;;;;;;42.72;24.90;;;153.80;1868.80;;;;;;4973293;28;20551;-65
2021/03/22 07:55:00;;;;;;;40.80;23.38;;;153.80;1868.80;;;;;;4973174;28;20030;-62
2021/03/22 07:57:44;;;;;;;37.10;23.13;;;153.80;1868.80;;;;;;4973273;28;20039;-62
2021/03/22 08:00:30;;;;;;;54.17;25.40;;;153.90;1868.80;;;;;;4973193;28;20430;-63
2021/03/22 08:03:12;;;;;;;59.88;27.67;;;153.90;1868.80;;;;;;4972973;28;20042;-62
2021/03/22 08:06:11;;;;;;;51.35;26.15;;;153.90;1868.80;;;;;;4973667;28;20354;-63
2021/03/22 08:09:02;;;;;;;50.42;27.38;;;154.00;1868.80;;;;;;4972912;28;20035;-64
2021/03/22 08:11:51;;;;;;;49.80;27.42;;;154.00;1868.80;;;;;;5073598;28;20029;-62
2021/03/22 08:14:35;;;;;;;40.28;25.25;;;154.10;1868.80;;;;;;5073467;28;20077;-63
2021/03/22 08:17:19;;;;;;;39.78;24.92;;;154.10;1843.20;;;;;;5073748;28;20017;-63
2021/03/22 08:19:54;;;;;;;35.60;22.40;;;154.20;1843.20;;;;;;5073552;28;20409;-64
2021/03/22 08:22:46;;;;;;;40.58;24.05;;;154.20;1868.80;;;;;;5073528;28;20032;-63
2021/03/22 08:25:22;;;;;;;52.70;31.35;;;154.30;1843.20;;;;;;5073595;28;20040;-73
2021/03/22 08:28:17;;;;;;;59.80;34.42;;;154.40;1868.80;;;;;;5055368;28;20115;-64
2021/03/22 08:30:57;;;;;;;51.03;29.92;;;154.40;1843.20;;;;;;5073334;28;20056;-62
2021/03/22 08:33:40;;;;;;;59.63;36.22;;;154.50;1843.20;;;;;;5073535;28;20036;-63
2021/03/22 08:36:21;;;;;;;56.63;34.65;;;179.20;1843.20;;;;;;5073027;28;20024;-63
2021/03/22 08:38:55;;;;;;;50.22;32.65;;;179.30;1817.60;;;;;;5072841;28;20045;-63
2021/03/22 08:41:37;;;;;;;45.38;29.35;;;179.30;1817.60;;;;;;5069837;28;20066;-73
2021/03/22 08:44:22;;;;;;;40.28;26.42;;;179.40;1792.00;;;;;;5072296;28;20033;-73
2021/03/22 08:46:51;;;;;;;;;;;179.50;1792.00;;;;;;5073070;28;20382;-62
2021/03/22 08:49:51;;;;;;;33.28;22.38;;;179.50;1792.00;;;;;;5072060;28;19916;-62
2021/03/22 08:52:46;;;;;;;32.20;22.88;;;179.50;1792.00;;;;;;5076272;28;20068;-72
2021/03/22 08:55:18;;;;;;;38.60;24.48;;;179.50;1792.00;;;;;;4975105;28;20066;-73
2021/03/22 08:57:50;;;;;;;42.38;25.38;;;179.50;1792.00;;;;;;4975005;28;20039;-68
2021/03/22 09:00:38;;;;;;;37.05;24.98;;;179.50;1792.00;;;;;;4975157;28;20035;-64
2021/03/22 09:03:13;;;;;;;33.50;20.52;;;179.50;1792.00;;;;;;4974362;28;20186;-71
2021/03/22 09:05:41;;;;;;;35.45;23.65;;;179.50;1792.00;;;;;;4975039;28;20034;-73
2021/03/22 09:08:17;;;;;;;31.92;22.95;;;179.50;1766.40;;;;;;4975169;28;20062;-64
2021/03/22 09:10:44;;;;;;;31.25;23.20;;;179.50;1766.40;;;;;;4974569;28;20038;-67
2021/03/22 09:13:30;;;;;;;32.85;22.45;;;179.50;1766.40;;;;;;4975047;28;20043;-69
2021/03/22 09:16:14;;;;;;;30.63;21.90;;;179.60;1766.40;;;;;;4958787;28;20113;-74
2021/03/22 09:19:14;;;;;;;28.80;20.92;;;179.50;1766.40;;;;;;4974545;28;20113;-66
2021/03/22 09:21:39;;;;;;;38.05;22.42;;;179.50;1766.40;;;;;;4974802;28;20105;-70
2021/03/22 09:24:36;;;;;;;38.80;23.33;;;179.50;1766.40;;;;;;4974517;28;20147;-67
2021/03/22 09:27:06;;;;;;;35.50;23.70;;;179.50;1766.40;;;;;;4975788;28;20026;-67
2021/03/22 09:29:31;;;;;;;39.03;24.63;;;179.40;1792.00;;;;;;4975811;28;20034;-73
2021/03/22 09:31:59;;;;;;;37.40;24.42;;;179.40;1792.00;;;;;;5017558;28;20056;-74
2021/03/22 09:34:37;;;;;;;34.60;23.50;;;179.40;1792.00;;;;;;5076601;28;20059;-65
2021/03/22 09:37:41;;;;;;;32.60;23.13;;;179.40;1792.00;;;;;;5076354;28;20064;-75
2021/03/22 09:40:30;;;;;;;32.90;23.67;;;179.40;1792.00;;;;;;5076373;28;20024;-70
2021/03/22 09:43:08;;;;;;;33.20;23.90;;;179.50;1792.00;;;;;;5063459;28;20075;-68
2021/03/22 09:46:01;;;;;;;34.58;24.50;;;179.60;1792.00;;;;;;5076215;28;20040;-74
2021/03/22 09:48:34;;;;;;;35.33;24.70;;;179.70;1817.60;;;;;;5076327;28;20035;-74
2021/03/22 09:51:03;;;;;;;32.28;23.05;;;179.70;1792.00;;;;;;5076275;28;20331;-74
2021/03/22 09:53:55;;;;;;;30.50;22.20;;;179.80;1792.00;;;;;;5075791;28;20028;-75
2021/03/22 09:56:28;;;;;;;49.58;30.55;;;179.80;1766.40;;;;;;5076074;28;20025;-68
2021/03/22 09:59:14;;;;;;;46.47;30.63;;;179.70;1766.40;;;;;;5076229;28;20107;-73
2021/03/22 10:01:41;;;;;;;48.38;31.02;;;179.70;1766.40;;;;;;5075186;28;20024;-72
2021/03/22 10:04:15;;;;;;;62.10;37.97;;;179.70;1766.40;;;;;;5075858;28;20028;-65
2021/03/22 10:06:52;;;;;;;57.25;35.60;;;179.70;1766.40;;;;;;5075657;28;20493;-60
2021/03/22 10:09:36;;;;;;;42.95;29.05;;;179.70;1766.40;;;;;;5075598;28;20462;-61
2021/03/22 10:12:31;;;;;;;44.90;29.95;;;179.70;1766.40;;;;;;5070495;28;20036;-63
2021/03/22 10:15:22;;;;;;;47.70;30.15;;;179.70;1766.40;;;;;;5069407;28;20024;-72
2021/03/22 10:18:10;;;;;;;40.15;27.83;;;179.60;1740.80;;;;;;4958567;28;20484;-71
2021/03/22 10:20:42;;;;;;;41.13;26.45;;;179.50;1766.40;;;;;;4974309;28;20050;-75
2021/03/22 10:23:33;;;;;;;35.75;25.75;;;179.50;1766.40;;;;;;4974099;28;20099;-71
2021/03/22 10:26:07;;;;;;;38.65;26.38;;;179.50;1766.40;;;;;;4971690;28;20106;-61
2021/03/22 10:28:33;;;;;;;43.30;28.80;;;179.50;1766.40;;;;;;4979068;28;20093;-67
2021/03/22 10:31:00;;;;;;;36.42;26.77;;;179.50;1766.40;;;;;;4985174;28;20039;-67
2021/03/22 10:33:27;;;;;;;39.75;26.77;;;179.50;1766.40;;;;;;4977609;28;20062;-74
2021/03/22 10:35:59;;;;;;;35.47;24.70;;;179.50;1766.40;;;;;;4974559;28;20038;-67
2021/03/22 10:38:29;;;;;;;42.28;28.08;;;179.60;1766.40;;;;;;4976690;28;20058;-74
2021/03/22 10:40:56;;;;;;;45.65;31.08;;;179.60;1766.40;;;;;;4973430;28;20031;-74
2021/03/22 10:43:25;;;;;;;39.88;28.15;;;179.60;1766.40;;;;;;4973721;28;20019;-74
2021/03/22 10:45:51;;;;;;;41.10;26.83;;;179.60;1766.40;;;;;;4968892;28;20085;-74
2021/03/22 10:48:28;;;;;;;45.63;30.77;;;179.60;1740.80;;;;;;4970448;28;20208;-70
2021/03/22 10:51:06;;;;;;;45.58;30.95;;;179.60;1740.80;;;;;;4970917;28;20043;-70
2021/03/22 10:53:32;;;;;;;43.15;28.13;;;179.60;1740.80;;;;;;4970881;28;20035;-71
2021/03/22 10:56:16;;;;;;;36.35;26.00;;;179.60;1740.80;;;;;;5069640;28;20436;-74
2021/03/22 10:58:43;;;;;;;41.42;26.77;;;179.60;1740.80;;;;;;5066919;28;20432;-71
2021/03/22 11:01:09;;;;;;;40.72;27.52;;;179.70;1740.80;;;;;;5074831;28;20107;-70
2021/03/22 11:03:36;;;;;;;45.65;29.50;;;179.80;1740.80;;;;;;5074796;28;20016;-74
2021/03/22 11:06:12;;;;;;;41.30;27.02;;;179.80;1715.20;;;;;;5074764;28;20529;-74
2021/03/22 11:08:54;;;;;;;40.08;26.17;;;179.80;1689.60;;;;;;5074643;28;20428;-74
2021/03/22 11:11:21;;;;;;;33.33;23.63;;;179.90;1664.00;;;;;;5074642;28;20035;-72
2021/03/22 11:13:51;;;;;;;34.70;23.83;;;179.90;1664.00;;;;;;5074745;28;20442;-75
2021/03/22 11:16:37;;;;;;;35.75;24.98;;;179.90;1664.00;;;;;;5074879;28;20033;-69
2021/03/22 11:19:42;;;;;;;44.08;24.35;;;180.00;1664.00;;;;;;5074681;28;20378;-69
2021/03/22 11:22:24;;;;;;;31.67;23.38;;;180.00;1638.40;;;;;;4973858;28;20485;-65
2021/03/22 11:24:51;;;;;;;33.55;22.90;;;180.10;1612.80;;;;;;4965660;28;20030;-74
2021/03/22 11:27:17;;;;;;;30.15;21.55;;;180.00;1612.80;;;;;;4973712;28;20045;-64
2021/03/22 11:29:55;;;;;;;37.45;23.52;;;180.00;1612.80;;;;;;4973962;28;20468;-74
2021/03/22 11:32:24;;;;;;;32.35;21.60;;;180.10;1612.80;;;;;;4973318;28;20050;-73
2021/03/22 11:34:50;;;;;;;29.65;21.48;;;180.10;1612.80;;;;;;4973442;28;20026;-69
2021/03/22 11:37:23;;;;;;;34.75;23.10;;;180.10;1612.80;;;;;;4973617;28;20370;-73
2021/03/22 11:40:12;;;;;;;32.83;22.80;;;180.10;1612.80;;;;;;4973448;28;20069;-74
2021/03/22 11:43:17;;;;;;;34.47;23.58;;;204.80;1612.80;;;;;;4973281;28;20030;-64
2021/03/22 11:45:46;;;;;;;30.60;21.35;;;180.10;1612.80;;;;;;4878487;29;20037;-66
2021/03/22 11:48:21;;;;;;;28.23;20.73;;;204.80;1612.80;;;;;;4878506;29;20081;-71
2021/03/22 11:51:08;;;;;;;33.67;20.90;;;204.80;1612.80;;;;;;4878345;29;20045;-65
2021/03/22 11:54:02;;;;;;;23.83;19.25;;;204.80;1612.80;;;;;;4878160;29;20521;-74
2021/03/22 11:56:30;;;;;;;28.05;19.35;;;204.80;1612.80;;;;;;4862726;29;20041;-68
2021/03/22 11:59:07;;;;;;;28.00;19.83;;;204.80;1612.80;;;;;;4929228;28;20517;-69
2021/03/22 12:01:33;;;;;;;27.08;19.38;;;204.80;1612.80;;;;;;4973104;28;20038;-72
2021/03/22 12:04:05;;;;;;;26.80;17.48;;;204.80;1587.20;;;;;;4973043;28;20428;-67
2021/03/22 12:06:33;;;;;;;24.17;16.55;;;204.80;1587.20;;;;;;4973232;28;20093;-63
2021/03/22 12:08:58;;;;;;;24.02;16.65;;;204.80;1587.20;;;;;;4956920;28;20362;-72
2021/03/22 12:11:30;;;;;;;26.75;17.83;;;204.80;1587.20;;;;;;4973169;28;20038;-73
2021/03/22 12:13:58;;;;;;;23.08;16.63;;;204.80;1587.20;;;;;;4973135;28;20089;-63
2021/03/22 12:16:26;;;;;;;20.85;15.45;;;204.80;1587.20;;;;;;4972954;28;20112;-74
2021/03/22 12:18:55;;;;;;;23.80;16.60;;;204.80;1587.20;;;;;;4972805;28;20023;-62
2021/03/22 12:21:21;;;;;;;27.42;16.77;;;204.90;1587.20;;;;;;4974334;28;20114;-67
2021/03/22 12:23:46;;;;;;;23.98;17.08;;;205.00;1561.60;;;;;;5073084;28;20020;-74
2021/03/22 12:26:17;;;;;;;24.50;17.05;;;205.10;1561.60;;;;;;5073322;28;20021;-63
2021/03/22 12:28:54;;;;;;;25.58;16.67;;;205.20;1536.00;;;;;;5073712;28;20378;-64
2021/03/22 12:31:29;;;;;;;22.60;16.05;;;205.30;1536.00;;;;;;5073624;28;20043;-63
2021/03/22 12:34:00;;;;;;;26.83;18.33;;;205.50;1510.40;;;;;;5073906;28;20024;-69
2021/03/22 12:36:26;;;;;;;24.25;16.20;;;205.60;1484.80;;;;;;5073342;28;20120;-74